createdAt,value
2023-01-30T00:01:58.537Z,73.73
2023-01-30T00:04:25.755Z,73.98
2023-01-30T00:06:52.940Z,74.20
2023-01-30T00:09:20.159Z,73.63
2023-01-30T00:11:49.550Z,74.07
2023-01-30T00:14:16.783Z,74.06
2023-01-30T00:16:44.018Z,74.51
2023-01-30T00:19:13.449Z,73.82
2023-01-30T00:21:40.581Z,74.03
2023-01-30T00:24:08.103Z,73.79
2023-01-30T00:27:00.297Z,73.61
2023-01-30T00:29:27.463Z,73.78
2023-01-30T00:31:57.354Z,74.16
2023-01-30T00:34:24.546Z,74.60
2023-01-30T00:37:06.445Z,74.58
2023-01-30T00:39:37.683Z,74.79
2023-01-30T00:42:23.918Z,74.83
2023-01-30T00:45:09.418Z,74.94
2023-01-30T00:47:36.607Z,74.85
2023-01-30T00:50:06.477Z,75.67
2023-01-30T00:52:36.874Z,75.62
2023-01-30T00:55:10.077Z,75.48
2023-01-30T00:57:39.404Z,75.72
2023-01-30T01:00:09.152Z,76.02
2023-01-30T01:02:38.818Z,76.11
2023-01-30T01:05:09.509Z,75.83
2023-01-30T01:08:02.064Z,75.75
2023-01-30T01:10:32.196Z,75.81
2023-01-30T01:12:59.503Z,75.99
2023-01-30T01:15:29.070Z,76.24
2023-01-30T01:17:56.362Z,76.85
2023-01-30T01:20:23.658Z,76.21
2023-01-30T01:22:55.510Z,76.60
2023-01-30T01:25:24.142Z,76.20
2023-01-30T01:27:55.072Z,76.13
2023-01-30T01:30:24.691Z,76.43
2023-01-30T01:32:51.849Z,76.53
2023-01-30T01:35:20.099Z,76.23
2023-01-30T01:37:52.724Z,76.33
2023-01-30T01:40:40.295Z,76.37
2023-01-30T01:43:25.136Z,76.33
2023-01-30T01:45:57.526Z,76.02
2023-01-30T01:48:35.960Z,76.17
2023-01-30T01:51:21.649Z,75.90
2023-01-30T01:53:58.782Z,76.26
2023-01-30T01:56:26.088Z,75.85
2023-01-30T01:59:09.303Z,76.01
2023-01-30T02:01:37.633Z,76.23
2023-01-30T02:04:10.013Z,76.13
2023-01-30T02:06:43.061Z,75.99
2023-01-30T02:09:13.152Z,76.13
2023-01-30T02:11:49.103Z,76.37
2023-01-30T02:14:20.837Z,76.34
2023-01-30T02:16:50.471Z,76.08
2023-01-30T02:19:43.269Z,76.43
2023-01-30T02:22:37.987Z,76.20
2023-01-30T02:25:25.642Z,76.33
2023-01-30T02:28:02.133Z,76.66
2023-01-30T02:31:15.841Z,77.56
2023-01-30T02:34:14.593Z,77.65
2023-01-30T02:36:50.298Z,76.63
2023-01-30T02:39:32.727Z,77.25
2023-01-30T02:42:08.765Z,77.35
2023-01-30T02:45:37.228Z,77.08
2023-01-30T02:48:10.213Z,77.13
2023-01-30T02:50:49.577Z,77.48
2023-01-30T02:53:17.354Z,77.88
2023-01-30T02:55:46.974Z,78.94
2023-01-30T02:58:22.882Z,78.10
2023-01-30T03:00:52.805Z,78.20
2023-01-30T03:03:55.089Z,78.17
2023-01-30T03:06:37.479Z,77.99
2023-01-30T03:09:21.952Z,77.91
2023-01-30T03:12:04.146Z,77.65
2023-01-30T03:14:47.317Z,78.33
2023-01-30T03:17:18.039Z,78.51
2023-01-30T03:19:48.244Z,78.31
2023-01-30T03:22:16.856Z,78.71
2023-01-30T03:24:44.406Z,78.66
2023-01-30T03:27:15.037Z,78.36
2023-01-30T03:29:44.793Z,78.05
2023-01-30T03:32:11.957Z,78.20
2023-01-30T03:34:39.193Z,78.42
2023-01-30T03:37:06.566Z,78.61
2023-01-30T03:39:40.956Z,78.30
2023-01-30T03:42:09.186Z,78.47
2023-01-30T03:44:39.352Z,78.66
2023-01-30T03:47:10.002Z,78.82
2023-01-30T03:49:40.006Z,78.30
2023-01-30T03:52:08.097Z,78.29
2023-01-30T03:54:35.466Z,78.24
2023-01-30T03:57:06.147Z,77.89
2023-01-30T03:59:34.009Z,77.91
2023-01-30T04:02:06.695Z,77.84
2023-01-30T04:04:36.285Z,78.11
2023-01-30T04:07:06.182Z,78.15
2023-01-30T04:09:35.965Z,78.26
2023-01-30T04:12:05.791Z,78.59
2023-01-30T04:14:38.805Z,79.28
2023-01-30T04:17:23.308Z,79.24
2023-01-30T04:20:15.950Z,79.66
2023-01-30T04:22:50.809Z,79.93
2023-01-30T04:25:21.062Z,79.94
2023-01-30T04:27:48.465Z,80.23
2023-01-30T04:30:19.523Z,80.19
2023-01-30T04:32:49.125Z,80.41
2023-01-30T04:35:16.883Z,80.20
2023-01-30T04:37:44.361Z,80.06
2023-01-30T04:40:17.280Z,79.43
2023-01-30T04:42:47.026Z,80.26
2023-01-30T04:45:47.262Z,80.06
2023-01-30T04:48:15.444Z,79.80
2023-01-30T04:50:47.085Z,79.78
2023-01-30T04:53:14.563Z,80.38
2023-01-30T04:55:44.636Z,80.47
2023-01-30T04:58:12.181Z,79.92
2023-01-30T05:00:41.532Z,80.31
2023-01-30T05:03:08.799Z,80.15
2023-01-30T05:05:39.086Z,80.39
2023-01-30T05:08:09.597Z,80.74
2023-01-30T05:10:36.791Z,80.56
2023-01-30T05:13:05.243Z,80.25
2023-01-30T05:15:33.110Z,80.41
2023-01-30T05:18:00.513Z,80.40
2023-01-30T05:20:27.795Z,80.38
2023-01-30T05:22:57.261Z,80.48
2023-01-30T05:25:29.062Z,80.00
2023-01-30T05:27:58.536Z,79.99
2023-01-30T05:30:25.749Z,80.25
2023-01-30T05:32:52.961Z,80.84
2023-01-30T05:35:20.412Z,80.47
2023-01-30T05:37:50.960Z,81.10
2023-01-30T05:40:18.511Z,81.13
2023-01-30T05:42:47.798Z,80.87
2023-01-30T05:45:15.035Z,81.19
2023-01-30T05:47:42.196Z,81.89
2023-01-30T05:50:10.236Z,81.18
2023-01-30T05:52:37.340Z,81.34
2023-01-30T05:55:04.867Z,81.34
2023-01-30T05:57:34.324Z,81.27
2023-01-30T06:00:01.503Z,81.58
2023-01-30T06:02:28.719Z,81.59
2023-01-30T06:04:55.933Z,81.40
2023-01-30T06:07:25.555Z,81.16
2023-01-30T06:09:52.779Z,81.27
2023-01-30T06:12:19.917Z,81.34
2023-01-30T06:14:49.339Z,81.59
2023-01-30T06:17:16.449Z,81.70
2023-01-30T06:19:43.676Z,81.30
2023-01-30T06:22:10.806Z,81.26
2023-01-30T06:24:40.065Z,81.25
2023-01-30T06:27:07.207Z,81.07
2023-01-30T06:29:34.415Z,81.59
2023-01-30T06:32:01.595Z,81.40
2023-01-30T06:34:30.936Z,81.16
2023-01-30T06:37:00.235Z,81.81
2023-01-30T06:39:27.419Z,81.53
2023-01-30T06:41:59.336Z,81.49
2023-01-30T06:44:28.682Z,81.49
2023-01-30T06:46:57.991Z,80.55
2023-01-30T06:49:25.235Z,81.15
2023-01-30T06:51:53.139Z,81.54
2023-01-30T06:54:25.887Z,81.23
2023-01-30T06:56:57.283Z,81.08
2023-01-30T06:59:24.560Z,81.04
2023-01-30T07:01:52.545Z,81.21
2023-01-30T07:04:19.894Z,81.03
2023-01-30T07:06:47.270Z,80.94
2023-01-30T07:09:14.805Z,80.55
2023-01-30T07:11:42.026Z,80.98
2023-01-30T07:14:09.922Z,80.98
2023-01-30T07:16:37.228Z,80.68
2023-01-30T07:19:04.547Z,80.90
2023-01-30T07:21:31.882Z,80.85
2023-01-30T07:23:59.621Z,80.82
2023-01-30T07:26:31.323Z,81.44
2023-01-30T07:28:58.591Z,81.56
2023-01-30T07:31:28.077Z,81.07
2023-01-30T07:33:57.601Z,81.15
2023-01-30T07:36:26.894Z,81.14
2023-01-30T07:38:54.254Z,80.99
2023-01-30T07:41:21.537Z,80.68
2023-01-30T07:43:49.048Z,80.56
2023-01-30T07:46:16.487Z,80.58
2023-01-30T07:48:46.354Z,80.18
2023-01-30T07:51:14.339Z,80.67
2023-01-30T07:53:43.651Z,80.16
2023-01-30T07:56:14.266Z,79.66
2023-01-30T07:58:43.841Z,79.75
2023-01-30T08:01:13.382Z,79.55
2023-01-30T08:03:44.720Z,79.33
2023-01-30T08:06:14.181Z,79.03
2023-01-30T08:08:43.994Z,79.00
2023-01-30T08:11:13.426Z,78.71
2023-01-30T08:13:42.713Z,78.57
2023-01-30T08:16:10.049Z,78.55
2023-01-30T08:18:37.266Z,78.41
2023-01-30T08:21:06.355Z,78.67
2023-01-30T08:23:34.085Z,78.37
2023-01-30T08:26:03.699Z,77.87
2023-01-30T08:28:35.510Z,77.55
2023-01-30T08:31:05.454Z,77.66
2023-01-30T08:33:32.688Z,78.12
2023-01-30T08:35:59.917Z,77.30
2023-01-30T08:38:27.243Z,77.44
2023-01-30T08:40:54.478Z,76.79
2023-01-30T08:43:21.604Z,77.04
2023-01-30T08:45:52.746Z,76.28
2023-01-30T08:48:20.010Z,76.26
2023-01-30T08:50:47.221Z,75.92
2023-01-30T08:53:14.913Z,75.31
2023-01-30T08:55:44.857Z,75.24
2023-01-30T08:58:12.148Z,75.72
2023-01-30T09:00:44.397Z,75.43
2023-01-30T09:03:13.699Z,75.43
2023-01-30T09:05:43.558Z,74.86
2023-01-30T09:08:10.758Z,74.50
2023-01-30T09:10:40.523Z,74.48
2023-01-30T09:13:12.025Z,74.12
2023-01-30T09:15:42.594Z,73.05
2023-01-30T09:18:09.810Z,72.22
2023-01-30T09:20:38.933Z,72.22
2023-01-30T09:23:06.243Z,71.68
2023-01-30T09:25:33.476Z,71.61
2023-01-30T09:28:01.067Z,71.63
2023-01-30T09:30:28.393Z,71.70
2023-01-30T09:32:55.610Z,71.66
2023-01-30T09:35:22.816Z,71.92
2023-01-30T09:37:52.327Z,72.24
2023-01-30T09:40:31.540Z,71.74
2023-01-30T09:43:43.805Z,70.92
2023-01-30T09:46:16.839Z,70.96
2023-01-30T09:49:25.345Z,70.27
2023-01-30T09:51:58.401Z,70.17
2023-01-30T09:54:40.287Z,69.77
2023-01-30T09:57:22.007Z,69.61
2023-01-30T09:59:57.703Z,68.82
2023-01-30T10:02:49.754Z,69.75
2023-01-30T10:05:17.367Z,68.98
2023-01-30T10:08:22.465Z,68.92
2023-01-30T10:11:11.041Z,68.95
2023-01-30T10:13:54.210Z,67.66
2023-01-30T10:16:42.706Z,68.51
2023-01-30T10:19:33.587Z,66.97
2023-01-30T10:22:28.214Z,66.15
2023-01-30T10:25:24.663Z,66.20
2023-01-30T10:27:56.707Z,66.68
2023-01-30T10:30:24.230Z,66.47
2023-01-30T10:33:08.337Z,66.54
2023-01-30T10:35:39.499Z,66.61
2023-01-30T10:38:20.058Z,66.83
2023-01-30T10:41:11.691Z,65.10
2023-01-30T10:43:44.115Z,64.90
2023-01-30T10:46:21.966Z,65.28
2023-01-30T10:48:55.411Z,65.04
2023-01-30T10:51:54.882Z,65.10
2023-01-30T10:54:32.903Z,65.06
2023-01-30T10:57:11.915Z,65.80
2023-01-30T10:59:55.493Z,65.20
2023-01-30T11:02:35.600Z,66.52
2023-01-30T11:05:09.721Z,66.60
2023-01-30T11:08:26.887Z,66.75
2023-01-30T11:10:58.917Z,66.90
2023-01-30T11:13:30.587Z,66.63
2023-01-30T11:16:06.144Z,66.72
2023-01-30T11:21:43.446Z,66.89
2023-01-30T11:24:20.742Z,67.08
2023-01-30T11:26:49.305Z,66.78
2023-01-30T11:29:30.152Z,67.07
2023-01-30T11:32:22.012Z,67.32
2023-01-30T11:35:24.381Z,66.90
2023-01-30T11:37:53.571Z,67.01
2023-01-30T11:40:31.141Z,67.57
2023-01-30T11:43:11.064Z,66.72
2023-01-30T11:45:44.706Z,66.43
2023-01-30T11:49:14.486Z,65.55
2023-01-30T11:51:37.561Z,64.74
2023-01-30T11:54:11.408Z,65.38
2023-01-30T11:56:54.376Z,65.48
2023-01-30T11:59:24.738Z,65.27
2023-01-30T12:02:04.069Z,65.82
2023-01-30T12:04:31.487Z,65.25
2023-01-30T12:07:09.191Z,64.75
2023-01-30T12:09:40.735Z,65.13
2023-01-30T12:12:49.169Z,64.66
2023-01-30T12:15:24.854Z,65.18
2023-01-30T12:18:04.394Z,65.12
2023-01-30T12:21:00.688Z,64.99
2023-01-30T12:23:33.753Z,65.64
2023-01-30T12:26:12.096Z,65.84
2023-01-30T12:29:03.597Z,65.69
2023-01-30T12:31:39.336Z,66.32
2023-01-30T12:34:09.624Z,67.11
2023-01-30T12:36:55.142Z,66.85
2023-01-30T12:39:34.066Z,67.67
2023-01-30T12:42:36.413Z,67.15
2023-01-30T12:45:13.103Z,66.32
2023-01-30T12:48:17.323Z,66.72
2023-01-30T12:51:23.181Z,67.15
2023-01-30T12:53:59.256Z,67.44
2023-01-30T12:56:32.253Z,67.25
2023-01-30T12:59:24.521Z,67.47
2023-01-30T13:02:06.937Z,67.86
2023-01-30T13:05:03.996Z,67.46
2023-01-30T13:07:59.598Z,67.58
2023-01-30T13:10:51.820Z,68.41
2023-01-30T13:13:39.425Z,68.68
2023-01-30T13:16:32.797Z,68.84
2023-01-30T13:19:12.947Z,69.39
2023-01-30T13:21:59.105Z,69.06
2023-01-30T13:24:55.465Z,69.04
2023-01-30T13:27:29.525Z,68.95
2023-01-30T13:29:59.665Z,68.98
2023-01-30T13:32:37.983Z,69.40
2023-01-30T13:35:14.274Z,69.17
2023-01-30T13:37:43.607Z,69.70
2023-01-30T13:40:21.601Z,69.95
2023-01-30T13:42:55.169Z,69.15
2023-01-30T13:45:28.483Z,69.24
2023-01-30T13:48:08.099Z,69.21
2023-01-30T13:50:56.449Z,69.00
2023-01-30T13:53:51.339Z,69.01
2023-01-30T13:56:40.316Z,69.12
2023-01-30T13:59:34.554Z,68.81
2023-01-30T14:02:06.434Z,69.22
2023-01-30T14:04:36.914Z,67.96
2023-01-30T14:07:12.927Z,68.21
2023-01-30T14:09:48.976Z,68.26
2023-01-30T14:12:23.230Z,68.04
2023-01-30T14:15:03.220Z,68.61
2023-01-30T14:17:30.835Z,68.75
2023-01-30T14:20:02.715Z,68.74
2023-01-30T14:22:35.501Z,69.14
2023-01-30T14:25:30.439Z,68.44
2023-01-30T14:28:00.375Z,68.32
2023-01-30T14:30:49.667Z,68.20
2023-01-30T14:33:23.017Z,67.80
2023-01-30T14:36:02.562Z,67.97
2023-01-30T14:38:35.278Z,68.27
2023-01-30T14:41:02.438Z,68.69
2023-01-30T14:43:54.392Z,68.41
2023-01-30T14:46:21.835Z,68.71
2023-01-30T14:48:56.831Z,68.34
2023-01-30T14:51:33.539Z,68.62
2023-01-30T14:54:20.592Z,68.00
2023-01-30T14:57:15.596Z,68.29
2023-01-30T14:59:45.575Z,68.20
2023-01-30T15:02:12.842Z,68.25
2023-01-30T15:04:47.799Z,68.41
2023-01-30T15:07:20.140Z,68.68
2023-01-30T15:10:23.707Z,68.99
2023-01-30T15:13:09.204Z,69.22
2023-01-30T15:15:55.326Z,70.08
2023-01-30T15:18:41.057Z,69.86
2023-01-30T15:21:40.567Z,70.00
2023-01-30T15:24:26.001Z,70.20
2023-01-30T15:27:14.858Z,69.70
2023-01-30T15:30:06.272Z,69.34
2023-01-30T15:32:33.720Z,69.07
2023-01-30T15:35:16.065Z,69.22
2023-01-30T15:37:46.040Z,68.76
2023-01-30T15:40:16.441Z,69.68
2023-01-30T15:42:57.703Z,69.65
2023-01-30T15:45:48.055Z,69.80
2023-01-30T15:48:43.211Z,70.08
2023-01-30T15:51:15.282Z,70.20
2023-01-30T15:53:47.653Z,70.09
2023-01-30T15:56:20.166Z,70.16
2023-01-30T15:58:47.639Z,70.68
2023-01-30T16:01:24.590Z,70.58
2023-01-30T16:03:54.996Z,70.87
2023-01-30T16:06:34.644Z,71.33
2023-01-30T16:09:06.018Z,71.13
2023-01-30T16:11:41.783Z,72.00
2023-01-30T16:14:17.075Z,71.49
2023-01-30T16:16:55.874Z,71.62
2023-01-30T16:19:30.706Z,71.81
2023-01-30T16:22:05.303Z,72.09
2023-01-30T16:24:35.598Z,72.36
2023-01-30T16:27:06.641Z,72.53
2023-01-30T16:29:46.794Z,72.47
2023-01-30T16:32:15.101Z,72.85
2023-01-30T16:34:42.253Z,72.92
2023-01-30T16:37:18.570Z,73.08
2023-01-30T16:40:02.567Z,73.55
2023-01-30T16:42:32.079Z,73.63
2023-01-30T16:45:11.303Z,73.80
2023-01-30T16:47:39.195Z,73.74
2023-01-30T16:50:21.923Z,73.78
2023-01-30T16:52:55.242Z,73.99
2023-01-30T16:55:26.856Z,73.77
2023-01-30T16:58:00.879Z,74.58
2023-01-30T17:00:42.707Z,73.92
2023-01-30T17:03:21.254Z,73.79
2023-01-30T17:05:49.765Z,74.00
2023-01-30T17:08:52.268Z,74.04
2023-01-30T17:11:39.128Z,74.11
2023-01-30T17:14:26.017Z,74.01
2023-01-30T17:17:13.268Z,73.94
2023-01-30T17:19:40.516Z,74.09
2023-01-30T17:22:19.294Z,74.18
2023-01-30T17:24:48.574Z,74.62
2023-01-30T17:27:16.387Z,74.96
2023-01-30T17:29:47.211Z,74.98
2023-01-30T17:32:17.556Z,74.90
2023-01-30T17:34:45.293Z,74.78
2023-01-30T17:37:22.431Z,74.96
2023-01-30T17:39:49.677Z,75.24
2023-01-30T17:42:22.261Z,75.70
2023-01-30T17:44:52.283Z,75.59
2023-01-30T17:47:21.906Z,75.88
2023-01-30T17:49:49.067Z,75.59
2023-01-30T17:52:19.072Z,75.21
2023-01-30T17:54:46.329Z,74.89
2023-01-30T17:57:15.774Z,74.68
2023-01-30T17:59:43.504Z,75.32
2023-01-30T18:02:10.705Z,75.14
2023-01-30T18:04:40.321Z,74.03
2023-01-30T18:07:12.686Z,74.04
2023-01-30T18:09:42.221Z,73.45
2023-01-30T18:12:09.411Z,73.38
2023-01-30T18:14:36.645Z,73.64
2023-01-30T18:17:04.107Z,73.31
2023-01-30T18:19:33.896Z,72.92
2023-01-30T18:22:01.062Z,72.66
2023-01-30T18:24:28.281Z,72.57
2023-01-30T18:26:59.134Z,72.15
2023-01-30T18:29:28.848Z,72.04
2023-01-30T18:32:05.071Z,71.64
2023-01-30T18:34:32.803Z,72.11
2023-01-30T18:36:59.923Z,72.27
2023-01-30T18:39:27.075Z,72.39
2023-01-30T18:41:54.310Z,72.73
2023-01-30T18:44:24.044Z,72.60
2023-01-30T18:46:51.408Z,72.76
2023-01-30T18:49:18.607Z,72.98
2023-01-30T18:51:45.822Z,72.81
2023-01-30T18:54:13.145Z,73.22
2023-01-30T18:56:40.495Z,73.15
2023-01-30T18:59:07.868Z,73.15
2023-01-30T19:01:39.964Z,73.06
2023-01-30T19:04:11.017Z,73.56
2023-01-30T19:06:41.128Z,73.96
2023-01-30T19:09:11.704Z,73.87
2023-01-30T19:11:59.860Z,74.01
2023-01-30T19:14:27.030Z,74.21
2023-01-30T19:16:54.633Z,73.84
2023-01-30T19:19:24.174Z,74.47
2023-01-30T19:21:52.361Z,74.77
2023-01-30T19:24:19.924Z,74.35
2023-01-30T19:26:48.381Z,73.71
2023-01-30T19:29:16.461Z,74.14
2023-01-30T19:31:43.728Z,73.92
2023-01-30T19:34:13.794Z,73.56
2023-01-30T19:36:41.640Z,73.17
2023-01-30T19:39:11.980Z,73.61
2023-01-30T19:41:39.225Z,74.59
2023-01-30T19:44:08.287Z,74.31
2023-01-30T19:46:36.361Z,74.39
2023-01-30T19:49:04.194Z,73.67
2023-01-30T19:51:34.054Z,73.69
2023-01-30T19:54:04.889Z,74.02
2023-01-30T19:56:34.806Z,73.90
2023-01-30T19:59:02.440Z,73.22
2023-01-30T20:01:33.045Z,73.53
2023-01-30T20:04:02.107Z,73.47
2023-01-30T20:06:31.878Z,73.34
2023-01-30T20:09:02.259Z,74.23
2023-01-30T20:11:30.082Z,73.39
2023-01-30T20:13:58.589Z,73.87
2023-01-30T20:16:27.741Z,73.81
2023-01-30T20:18:57.780Z,74.00
2023-01-30T20:21:26.935Z,74.73
2023-01-30T20:23:54.523Z,74.54
2023-01-30T20:26:24.745Z,74.11
2023-01-30T20:28:54.532Z,74.24
2023-01-30T20:31:24.422Z,74.07
2023-01-30T20:33:53.127Z,74.52
2023-01-30T20:36:20.551Z,74.43
2023-01-30T20:38:49.237Z,74.40
2023-01-30T20:41:19.259Z,74.42
2023-01-30T20:43:51.032Z,74.16
2023-01-30T20:46:23.793Z,74.47
2023-01-30T20:48:54.917Z,74.77
2023-01-30T20:51:25.761Z,74.83
2023-01-30T20:54:07.666Z,75.38
2023-01-30T20:56:37.587Z,75.65
2023-01-30T20:59:06.904Z,75.94
2023-01-30T21:01:36.400Z,76.17
2023-01-30T21:04:08.886Z,76.18
2023-01-30T21:06:44.124Z,76.34
2023-01-30T21:09:20.064Z,77.28
2023-01-30T21:11:51.174Z,77.05
2023-01-30T21:14:18.478Z,77.00
2023-01-30T21:16:46.488Z,77.35
2023-01-30T21:19:16.241Z,77.64
2023-01-30T21:21:50.680Z,77.58
2023-01-30T21:24:21.873Z,77.68
2023-01-30T21:26:49.181Z,77.52
2023-01-30T21:29:19.096Z,77.90
2023-01-30T21:31:46.958Z,78.63
2023-01-30T21:34:14.258Z,78.32
2023-01-30T21:36:41.795Z,78.31
2023-01-30T21:39:32.314Z,78.06
2023-01-30T21:42:19.260Z,78.42
2023-01-30T21:44:47.247Z,78.48
2023-01-30T21:47:19.241Z,78.07
2023-01-30T21:49:46.413Z,78.53
2023-01-30T21:52:38.911Z,77.70
2023-01-30T21:55:06.575Z,77.48
2023-01-30T21:57:33.740Z,77.32
2023-01-30T22:00:01.597Z,77.38
2023-01-30T22:02:28.762Z,77.01
2023-01-30T22:04:58.421Z,76.90
2023-01-30T22:07:25.553Z,76.98
2023-01-30T22:09:52.716Z,77.13
2023-01-30T22:12:22.054Z,76.68
2023-01-30T22:14:49.500Z,77.09
2023-01-30T22:17:16.718Z,76.54
2023-01-30T22:19:43.961Z,76.90
2023-01-30T22:22:11.089Z,77.02
2023-01-30T22:24:42.944Z,76.99
2023-01-30T22:27:10.153Z,76.73
2023-01-30T22:30:02.238Z,76.78
2023-01-30T22:32:31.800Z,76.41
2023-01-30T22:34:58.946Z,76.49
2023-01-30T22:37:26.132Z,76.35
2023-01-30T22:39:55.403Z,75.81
2023-01-30T22:42:22.622Z,76.04
2023-01-30T22:44:51.988Z,75.86
2023-01-30T22:47:24.008Z,75.70
2023-01-30T22:49:51.209Z,75.82
2023-01-30T22:52:18.451Z,75.49
2023-01-30T22:54:47.817Z,75.27
2023-01-30T22:57:17.320Z,75.69
2023-01-30T22:59:46.785Z,75.53
2023-01-30T23:02:16.305Z,75.84
2023-01-30T23:04:43.465Z,75.69
2023-01-30T23:07:14.317Z,75.76
2023-01-30T23:09:41.552Z,75.88
2023-01-30T23:12:26.960Z,75.33
2023-01-30T23:14:54.147Z,75.66
2023-01-30T23:17:40.258Z,74.96
2023-01-30T23:20:08.150Z,76.37
2023-01-30T23:22:40.238Z,75.33
2023-01-30T23:25:09.077Z,75.87
2023-01-30T23:27:39.075Z,75.14
2023-01-30T23:30:06.958Z,76.06
2023-01-30T23:32:34.071Z,76.21
2023-01-30T23:35:01.221Z,75.60
2023-01-30T23:37:49.773Z,75.51
2023-01-30T23:40:17.141Z,75.27
2023-01-30T23:42:44.283Z,74.89
2023-01-30T23:45:11.525Z,74.21
2023-01-30T23:47:38.897Z,75.03
2023-01-30T23:50:09.134Z,74.43
2023-01-30T23:52:38.796Z,73.74
2023-01-30T23:55:07.202Z,73.90
2023-01-30T23:57:34.332Z,73.05
